Fort Leavenworth, Kansas
Current Conditions -  °F | °C
As of 10:03 AM on Friday 21 Nov 2014 (Local Time) from KMCI Reporting Station
Broken Clouds Broken Clouds  
Wind Chill: 23°   Ceiling: 1200
Heat Index: 33°   Visibility: 10mi
Dew Point: 20°   Wind: 16mph
Humidity: 59%   Direction: 130°SE
Pressure: 30.22"   Gusts: NA
Location:  39.34°N, 94.92°W
Report Text: KMCI 211603Z 13014KT 10SM BKN012 BKN250 01/M07 A3022 RMK AO2 T00061067
Loading
Personal Weather Stations






























Interactive Weather Map New forecast layout! Learn more

10-Day Weather Forecast

Advertisements
Track Severe Weather on mobile